Dawson Community Airport Glendive US
ICAO: KGDV
IATA: GDV
Category: Medium
Scheduled Services: No

Elevation: 2458 ft
TransAlt. 18000 ft.

Airport Communications:
AWOS 3:135.075
GREAT FALLS RDO:122.55
CTAF/UNICOM:122.8

KGDV Zoom In..

If you have problems with the map follow the link
https://www.worldairports.se/pages/airport.php?
ICAO=KGDV

Runways:

(A) RW 02 length 3002 ft width 60 ft
---- / hdg 23

(B) RW 12 length 5704 ft width 100 ft
---- / hdg 123

(C) RW 20 length 3002 ft width 60 ft
---- / hdg 203

(D) RW 30 length 5704 ft width 100 ft
---- / hdg 303

Location; KGDV
Day. 26 / Time. 23.25 Zulu
* Altimeter: 30.00
* Temperature: 00° c. 32°f.
* Wind from: 300° Speed 06 kn.
Dewpoint: -02° c.
Visibility: 10 Statute Miles.
Clouds: Scattered 1300 ft.
Clouds: Overcast 1800 ft.

KGDV 262325Z AUTO 30006KT 10SM SCT013 OVC018 00/M02 A3000 RMK AO2 FZRANO


Wind From 300°
Speed 06 kn.

 
 
jpsmedia worldairports.se 2020   terms of use